sensor_id;sensor_type;location;lat;lon;timestamp;pressure;altitude;pressure_sealevel;temperature;humidity
36092;BME280;22147;52.388;13.390;2024-03-02T00:02:06;99836.53;;;3.61;100.00
36092;BME280;22147;52.388;13.390;2024-03-02T00:04:37;99835.09;;;3.63;100.00
36092;BME280;22147;52.388;13.390;2024-03-02T00:07:07;99832.06;;;3.65;100.00
36092;BME280;22147;52.388;13.390;2024-03-02T00:09:37;99833.38;;;3.67;100.00
36092;BME280;22147;52.388;13.390;2024-03-02T00:12:08;99827.91;;;3.67;100.00
36092;BME280;22147;52.388;13.390;2024-03-02T00:14:45;99829.53;;;3.69;100.00
36092;BME280;22147;52.388;13.390;2024-03-02T00:17:24;99826.16;;;3.72;100.00
36092;BME280;22147;52.388;13.390;2024-03-02T00:19:58;99819.88;;;3.71;100.00
36092;BME280;22147;52.388;13.390;2024-03-02T00:22:28;99821.47;;;3.72;100.00
36092;BME280;22147;52.388;13.390;2024-03-02T00:24:58;99822.00;;;3.74;100.00
36092;BME280;22147;52.388;13.390;2024-03-02T00:27:28;99819.75;;;3.76;100.00
36092;BME280;22147;52.388;13.390;2024-03-02T00:30:00;99817.84;;;3.77;100.00
36092;BME280;22147;52.388;13.390;2024-03-02T00:32:35;99816.72;;;3.78;100.00
36092;BME280;22147;52.388;13.390;2024-03-02T00:35:05;99813.66;;;3.79;100.00
36092;BME280;22147;52.388;13.390;2024-03-02T00:37:35;99812.84;;;3.79;100.00
36092;BME280;22147;52.388;13.390;2024-03-02T00:40:07;99816.41;;;3.79;100.00
36092;BME280;22147;52.388;13.390;2024-03-02T00:42:39;99818.03;;;3.80;100.00
36092;BME280;22147;52.388;13.390;2024-03-02T00:45:10;99815.28;;;3.80;100.00
36092;BME280;22147;52.388;13.390;2024-03-02T00:47:40;99815.00;;;3.82;100.00
36092;BME280;22147;52.388;13.390;2024-03-02T00:50:10;99817.75;;;3.82;100.00
36092;BME280;22147;52.388;13.390;2024-03-02T00:52:52;99818.25;;;3.84;100.00
36092;BME280;22147;52.388;13.390;2024-03-02T00:55:22;99812.75;;;3.84;100.00
36092;BME280;22147;52.388;13.390;2024-03-02T00:57:52;99819.56;;;3.86;100.00
36092;BME280;22147;52.388;13.390;2024-03-02T01:00:22;99808.28;;;3.88;100.00
36092;BME280;22147;52.388;13.390;2024-03-02T01:02:52;99805.53;;;3.88;100.00
36092;BME280;22147;52.388;13.390;2024-03-02T01:05:22;99804.41;;;3.89;100.00
36092;BME280;22147;52.388;13.390;2024-03-02T01:07:52;99812.63;;;3.89;100.00
36092;BME280;22147;52.388;13.390;2024-03-02T01:10:22;99807.97;;;3.90;100.00
36092;BME280;22147;52.388;13.390;2024-03-02T01:12:52;99802.16;;;3.91;100.00
36092;BME280;22147;52.388;13.390;2024-03-02T01:15:22;99802.50;;;3.90;100.00
36092;BME280;22147;52.388;13.390;2024-03-02T01:17:52;99804.09;;;3.91;100.00
36092;BME280;22147;52.388;13.390;2024-03-02T01:20:24;99801.06;;;3.92;100.00
36092;BME280;22147;52.388;13.390;2024-03-02T01:22:55;99802.38;;;3.95;100.00
36092;BME280;22147;52.388;13.390;2024-03-02T01:25:25;99803.19;;;3.95;100.00
36092;BME280;22147;52.388;13.390;2024-03-02T01:27:55;99808.06;;;3.98;100.00
36092;BME280;22147;52.388;13.390;2024-03-02T01:30:25;99806.94;;;3.99;100.00
36092;BME280;22147;52.388;13.390;2024-03-02T01:32:54;99802.59;;;3.98;100.00
36092;BME280;22147;52.388;13.390;2024-03-02T01:35:25;99791.59;;;3.98;100.00
36092;BME280;22147;52.388;13.390;2024-03-02T01:37:56;99785.47;;;4.01;100.00
36092;BME280;22147;52.388;13.390;2024-03-02T01:40:26;99785.47;;;4.01;100.00
36092;BME280;22147;52.388;13.390;2024-03-02T01:42:56;99785.97;;;4.03;100.00
36092;BME280;22147;52.388;13.390;2024-03-02T01:45:29;99785.69;;;4.05;100.00
36092;BME280;22147;52.388;13.390;2024-03-02T01:47:59;99775.50;;;4.05;100.00
36092;BME280;22147;52.388;13.390;2024-03-02T01:50:32;99781.78;;;4.06;100.00
36092;BME280;22147;52.388;13.390;2024-03-02T01:53:02;99783.72;;;4.05;100.00
36092;BME280;22147;52.388;13.390;2024-03-02T01:55:33;99780.69;;;4.07;100.00
36092;BME280;22147;52.388;13.390;2024-03-02T01:58:04;99771.63;;;4.06;100.00
36092;BME280;22147;52.388;13.390;2024-03-02T02:00:35;99766.94;;;4.07;100.00
36092;BME280;22147;52.388;13.390;2024-03-02T02:03:05;99770.81;;;4.06;100.00
36092;BME280;22147;52.388;13.390;2024-03-02T02:05:36;99768.06;;;4.06;100.00
36092;BME280;22147;52.388;13.390;2024-03-02T02:08:06;99758.19;;;4.05;100.00
36092;BME280;22147;52.388;13.390;2024-03-02T02:10:35;99762.88;;;4.04;100.00
36092;BME280;22147;52.388;13.390;2024-03-02T02:13:03;99760.13;;;4.04;100.00
36092;BME280;22147;52.388;13.390;2024-03-02T02:15:31;99757.91;;;4.06;100.00
36092;BME280;22147;52.388;13.390;2024-03-02T02:18:03;99769.78;;;4.16;100.00
36092;BME280;22147;52.388;13.390;2024-03-02T02:20:31;99758.66;;;4.21;100.00
36092;BME280;22147;52.388;13.390;2024-03-02T02:23:04;99759.66;;;4.25;100.00
36092;BME280;22147;52.388;13.390;2024-03-02T02:25:39;99763.94;;;4.31;100.00
36092;BME280;22147;52.388;13.390;2024-03-02T02:28:10;99753.13;;;4.35;100.00
36092;BME280;22147;52.388;13.390;2024-03-02T02:30:40;99753.94;;;4.35;100.00
36092;BME280;22147;52.388;13.390;2024-03-02T02:33:10;99755.47;;;4.41;100.00
36092;BME280;22147;52.388;13.390;2024-03-02T02:35:41;99757.09;;;4.42;100.00
36092;BME280;22147;52.388;13.390;2024-03-02T02:38:11;99762.78;;;4.46;100.00
36092;BME280;22147;52.388;13.390;2024-03-02T02:40:41;99756.16;;;4.47;100.00
36092;BME280;22147;52.388;13.390;2024-03-02T02:43:11;99764.41;;;4.47;100.00
36092;BME280;22147;52.388;13.390;2024-03-02T02:45:42;99761.84;;;4.51;100.00
36092;BME280;22147;52.388;13.390;2024-03-02T02:48:12;99766.28;;;4.60;100.00
36092;BME280;22147;52.388;13.390;2024-03-02T02:50:42;99766.16;;;4.65;100.00
36092;BME280;22147;52.388;13.390;2024-03-02T02:53:12;99761.66;;;4.69;100.00
36092;BME280;22147;52.388;13.390;2024-03-02T02:55:43;99758.81;;;4.75;100.00
36092;BME280;22147;52.388;13.390;2024-03-02T02:58:13;99762.06;;;4.77;100.00
36092;BME280;22147;52.388;13.390;2024-03-02T03:00:43;99763.34;;;4.79;100.00
36092;BME280;22147;52.388;13.390;2024-03-02T03:03:13;99765.47;;;4.82;100.00
36092;BME280;22147;52.388;13.390;2024-03-02T03:05:43;99765.66;;;4.86;100.00
36092;BME280;22147;52.388;13.390;2024-03-02T03:08:13;99763.91;;;4.90;100.00
36092;BME280;22147;52.388;13.390;2024-03-02T03:10:43;99763.63;;;4.92;100.00
36092;BME280;22147;52.388;13.390;2024-03-02T03:13:13;99763.78;;;4.95;100.00
36092;BME280;22147;52.388;13.390;2024-03-02T03:15:40;99764.28;;;4.97;100.00
36092;BME280;22147;52.388;13.390;2024-03-02T03:18:10;99754.59;;;5.00;100.00
36092;BME280;22147;52.388;13.390;2024-03-02T03:20:40;99762.22;;;5.03;100.00
36092;BME280;22147;52.388;13.390;2024-03-02T03:23:10;99758.00;;;5.05;100.00
36092;BME280;22147;52.388;13.390;2024-03-02T03:25:45;99756.59;;;5.08;100.00
36092;BME280;22147;52.388;13.390;2024-03-02T03:28:14;99752.72;;;5.09;100.00
36092;BME280;22147;52.388;13.390;2024-03-02T03:30:44;99752.41;;;5.10;100.00
36092;BME280;22147;52.388;13.390;2024-03-02T03:33:14;99755.66;;;5.13;100.00
36092;BME280;22147;52.388;13.390;2024-03-02T03:35:44;99752.56;;;5.14;100.00
36092;BME280;22147;52.388;13.390;2024-03-02T03:38:14;99756.75;;;5.12;100.00
36092;BME280;22147;52.388;13.390;2024-03-02T03:40:44;99752.41;;;5.10;100.00
36092;BME280;22147;52.388;13.390;2024-03-02T03:43:14;99753.19;;;5.11;100.00
36092;BME280;22147;52.388;13.390;2024-03-02T03:45:44;99751.25;;;5.12;100.00
36092;BME280;22147;52.388;13.390;2024-03-02T03:48:14;99757.25;;;5.14;100.00
36092;BME280;22147;52.388;13.390;2024-03-02T03:50:44;99760.50;;;5.16;100.00
36092;BME280;22147;52.388;13.390;2024-03-02T03:53:14;99760.50;;;5.16;100.00
36092;BME280;22147;52.388;13.390;2024-03-02T03:55:44;99765.41;;;5.19;100.00
36092;BME280;22147;52.388;13.390;2024-03-02T03:58:16;99764.91;;;5.17;100.00
36092;BME280;22147;52.388;13.390;2024-03-02T04:00:51;99769.75;;;5.20;100.00
36092;BME280;22147;52.388;13.390;2024-03-02T04:03:21;99771.41;;;5.21;100.00
36092;BME280;22147;52.388;13.390;2024-03-02T04:05:52;99769.16;;;5.23;100.00
36092;BME280;22147;52.388;13.390;2024-03-02T04:08:21;99770.75;;;5.24;100.00
36092;BME280;22147;52.388;13.390;2024-03-02T04:10:51;99771.25;;;5.26;100.00
36092;BME280;22147;52.388;13.390;2024-03-02T04:13:22;99772.06;;;5.26;100.00
36092;BME280;22147;52.388;13.390;2024-03-02T04:15:52;99771.25;;;5.26;100.00
36092;BME280;22147;52.388;13.390;2024-03-02T04:18:22;99777.56;;;5.26;100.00
36092;BME280;22147;52.388;13.390;2024-03-02T04:20:52;99773.38;;;5.29;100.00
36092;BME280;22147;52.388;13.390;2024-03-02T04:23:23;99775.81;;;5.30;100.00
36092;BME280;22147;52.388;13.390;2024-03-02T04:25:52;99766.44;;;5.32;100.00
36092;BME280;22147;52.388;13.390;2024-03-02T04:28:22;99764.50;;;5.32;100.00
36092;BME280;22147;52.388;13.390;2024-03-02T04:30:52;99767.44;;;5.36;100.00
36092;BME280;22147;52.388;13.390;2024-03-02T04:33:22;99770.19;;;5.36;100.00
36092;BME280;22147;52.388;13.390;2024-03-02T04:35:53;99773.44;;;5.38;100.00
36092;BME280;22147;52.388;13.390;2024-03-02T04:38:23;99768.75;;;5.38;100.00
36092;BME280;22147;52.388;13.390;2024-03-02T04:40:53;99778.09;;;5.37;100.00
36092;BME280;22147;52.388;13.390;2024-03-02T04:43:23;99778.94;;;5.38;100.00
36092;BME280;22147;52.388;13.390;2024-03-02T04:45:53;99783.63;;;5.37;100.00
36092;BME280;22147;52.388;13.390;2024-03-02T04:48:23;99791.38;;;5.35;100.00
36092;BME280;22147;52.388;13.390;2024-03-02T04:50:53;99796.28;;;5.38;100.00
36092;BME280;22147;52.388;13.390;2024-03-02T04:53:23;99797.38;;;5.37;100.00
36092;BME280;22147;52.388;13.390;2024-03-02T04:55:53;99801.47;;;5.40;100.00
36092;BME280;22147;52.388;13.390;2024-03-02T04:58:41;99818.31;;;5.38;100.00
36092;BME280;22147;52.388;13.390;2024-03-02T05:01:11;99821.66;;;5.35;100.00
36092;BME280;22147;52.388;13.390;2024-03-02T05:03:42;99821.66;;;5.35;100.00
36092;BME280;22147;52.388;13.390;2024-03-02T05:06:12;99807.41;;;5.33;100.00
36092;BME280;22147;52.388;13.390;2024-03-02T05:08:42;99820.06;;;5.34;100.00
36092;BME280;22147;52.388;13.390;2024-03-02T05:11:12;99822.50;;;5.36;100.00
36092;BME280;22147;52.388;13.390;2024-03-02T05:14:00;99828.31;;;5.34;100.00
36092;BME280;22147;52.388;13.390;2024-03-02T05:16:35;99838.19;;;5.35;100.00
36092;BME280;22147;52.388;13.390;2024-03-02T05:19:05;99839.03;;;5.36;100.00
36092;BME280;22147;52.388;13.390;2024-03-02T05:21:36;99840.94;;;5.35;100.00
36092;BME280;22147;52.388;13.390;2024-03-02T05:24:07;99839.34;;;5.34;100.00
36092;BME280;22147;52.388;13.390;2024-03-02T05:26:37;99831.38;;;5.33;100.00
36092;BME280;22147;52.388;13.390;2024-03-02T05:29:06;99829.88;;;5.26;100.00
36092;BME280;22147;52.388;13.390;2024-03-02T05:31:37;99835.38;;;5.26;100.00
36092;BME280;22147;52.388;13.390;2024-03-02T05:34:06;99833.44;;;5.27;100.00
36092;BME280;22147;52.388;13.390;2024-03-02T05:36:36;99829.88;;;5.26;100.00
36092;BME280;22147;52.388;13.390;2024-03-02T05:39:08;99840.59;;;5.28;100.00
36092;BME280;22147;52.388;13.390;2024-03-02T05:41:40;99849.97;;;5.27;100.00
36092;BME280;22147;52.388;13.390;2024-03-02T05:44:10;99855.47;;;5.27;100.00
36092;BME280;22147;52.388;13.390;2024-03-02T05:46:40;99848.34;;;5.26;100.00
36092;BME280;22147;52.388;13.390;2024-03-02T05:49:10;99853.84;;;5.26;100.00
36092;BME280;22147;52.388;13.390;2024-03-02T05:51:40;99860.00;;;5.23;100.00
36092;BME280;22147;52.388;13.390;2024-03-02T05:54:11;99857.84;;;5.20;100.00
36092;BME280;22147;52.388;13.390;2024-03-02T05:56:41;99858.66;;;5.20;100.00
36092;BME280;22147;52.388;13.390;2024-03-02T05:59:11;99859.50;;;5.21;100.00
36092;BME280;22147;52.388;13.390;2024-03-02T06:01:46;99859.81;;;5.19;100.00
36092;BME280;22147;52.388;13.390;2024-03-02T06:04:16;99856.84;;;5.16;100.00
36092;BME280;22147;52.388;13.390;2024-03-02T06:06:47;99856.53;;;5.17;100.00
36092;BME280;22147;52.388;13.390;2024-03-02T06:09:19;99860.09;;;5.18;100.00
36092;BME280;22147;52.388;13.390;2024-03-02T06:11:50;99860.91;;;5.18;100.00
36092;BME280;22147;52.388;13.390;2024-03-02T06:14:20;99861.25;;;5.17;100.00
36092;BME280;22147;52.388;13.390;2024-03-02T06:16:49;99864.50;;;5.19;100.00
36092;BME280;22147;52.388;13.390;2024-03-02T06:19:19;99856.53;;;5.17;100.00
36092;BME280;22147;52.388;13.390;2024-03-02T06:21:49;99858.81;;;5.15;100.00
36092;BME280;22147;52.388;13.390;2024-03-02T06:24:19;99863.16;;;5.16;100.00
36092;BME280;22147;52.388;13.390;2024-03-02T06:26:49;99862.66;;;5.14;100.00
36092;BME280;22147;52.388;13.390;2024-03-02T06:29:19;99864.00;;;5.17;100.00
36092;BME280;22147;52.388;13.390;2024-03-02T06:31:48;99866.41;;;5.18;100.00
36092;BME280;22147;52.388;13.390;2024-03-02T06:34:22;99869.16;;;5.18;100.00
36092;BME280;22147;52.388;13.390;2024-03-02T06:36:52;99870.19;;;5.22;100.00
36092;BME280;22147;52.388;13.390;2024-03-02T06:39:22;99875.69;;;5.22;100.00
36092;BME280;22147;52.388;13.390;2024-03-02T06:41:52;99873.75;;;5.23;100.00
36092;BME280;22147;52.388;13.390;2024-03-02T06:44:20;99872.94;;;5.22;100.00
36092;BME280;22147;52.388;13.390;2024-03-02T06:46:49;99877.63;;;5.22;100.00
36092;BME280;22147;52.388;13.390;2024-03-02T06:49:18;99880.56;;;5.25;100.00
36092;BME280;22147;52.388;13.390;2024-03-02T06:51:47;99884.44;;;5.24;100.00
36092;BME280;22147;52.388;13.390;2024-03-02T06:54:17;99881.69;;;5.24;100.00
36092;BME280;22147;52.388;13.390;2024-03-02T06:56:45;99879.13;;;5.28;100.00
36092;BME280;22147;52.388;13.390;2024-03-02T06:59:13;99882.09;;;5.32;100.00
36092;BME280;22147;52.388;13.390;2024-03-02T07:01:42;99889.50;;;5.31;100.00
36092;BME280;22147;52.388;13.390;2024-03-02T07:04:13;99888.09;;;5.34;100.00
36092;BME280;22147;52.388;13.390;2024-03-02T07:06:43;99880.94;;;5.33;100.00
36092;BME280;22147;52.388;13.390;2024-03-02T07:09:17;99888.09;;;5.34;100.00
36092;BME280;22147;52.388;13.390;2024-03-02T07:11:49;99888.91;;;5.34;100.00
36092;BME280;22147;52.388;13.390;2024-03-02T07:14:21;99887.44;;;5.37;100.00
36092;BME280;22147;52.388;13.390;2024-03-02T07:16:52;99891.19;;;5.41;100.00
36092;BME280;22147;52.388;13.390;2024-03-02T07:19:24;99899.59;;;5.36;100.00
36092;BME280;22147;52.388;13.390;2024-03-02T07:21:54;99897.50;;;5.41;100.00
36092;BME280;22147;52.388;13.390;2024-03-02T07:24:25;99900.47;;;5.45;100.00
36092;BME280;22147;52.388;13.390;2024-03-02T07:26:55;99903.72;;;5.47;100.00
36092;BME280;22147;52.388;13.390;2024-03-02T07:29:25;99907.97;;;5.53;100.00
36092;BME280;22147;52.388;13.390;2024-03-02T07:31:56;99903.28;;;5.54;100.00
36092;BME280;22147;52.388;13.390;2024-03-02T07:34:26;99915.09;;;5.54;100.00
36092;BME280;22147;52.388;13.390;2024-03-02T07:36:56;99918.34;;;5.56;100.00
36092;BME280;22147;52.388;13.390;2024-03-02T07:39:27;99927.13;;;5.58;100.00
36092;BME280;22147;52.388;13.390;2024-03-02T07:41:58;99938.94;;;5.59;100.00
36092;BME280;22147;52.388;13.390;2024-03-02T07:44:29;99937.03;;;5.59;100.00
36092;BME280;22147;52.388;13.390;2024-03-02T07:47:00;99936.88;;;5.64;100.00
36092;BME280;22147;52.388;13.390;2024-03-02T07:49:30;99946.16;;;5.68;100.00
36092;BME280;22147;52.388;13.390;2024-03-02T07:52:00;99948.91;;;5.68;100.00
36092;BME280;22147;52.388;13.390;2024-03-02T07:54:31;99951.34;;;5.70;100.00
36092;BME280;22147;52.388;13.390;2024-03-02T07:57:01;99957.66;;;5.70;100.00
36092;BME280;22147;52.388;13.390;2024-03-02T07:59:31;99957.88;;;5.74;100.00
36092;BME280;22147;52.388;13.390;2024-03-02T08:02:02;99955.28;;;5.78;100.00
36092;BME280;22147;52.388;13.390;2024-03-02T08:04:33;99959.97;;;5.77;100.00
36092;BME280;22147;52.388;13.390;2024-03-02T08:07:03;99956.78;;;5.84;100.00
36092;BME280;22147;52.388;13.390;2024-03-02T08:09:34;99953.41;;;5.87;100.00
36092;BME280;22147;52.388;13.390;2024-03-02T08:12:05;99961.97;;;5.85;100.00
36092;BME280;22147;52.388;13.390;2024-03-02T08:14:35;99964.44;;;5.87;100.00
36092;BME280;22147;52.388;13.390;2024-03-02T08:17:06;99966.53;;;5.90;100.00
36092;BME280;22147;52.388;13.390;2024-03-02T08:19:40;99968.00;;;5.87;100.00
36092;BME280;22147;52.388;13.390;2024-03-02T08:22:11;99963.97;;;5.94;100.00
36092;BME280;22147;52.388;13.390;2024-03-02T08:24:42;99969.38;;;5.99;100.00
36092;BME280;22147;52.388;13.390;2024-03-02T08:27:12;99972.13;;;5.99;100.00
36092;BME280;22147;52.388;13.390;2024-03-02T08:29:43;99974.38;;;5.97;100.00
36092;BME280;22147;52.388;13.390;2024-03-02T08:32:13;99972.78;;;5.96;100.00
36092;BME280;22147;52.388;13.390;2024-03-02T08:34:43;99976.66;;;5.95;100.00
36092;BME280;22147;52.388;13.390;2024-03-02T08:37:14;99974.59;;;6.00;100.00
36092;BME280;22147;52.388;13.390;2024-03-02T08:39:45;99973.47;;;6.01;100.00
36092;BME280;22147;52.388;13.390;2024-03-02T08:42:15;99969.56;;;6.02;100.00
36092;BME280;22147;52.388;13.390;2024-03-02T08:44:46;99973.63;;;6.05;100.00
36092;BME280;22147;52.388;13.390;2024-03-02T08:47:16;99974.13;;;6.07;100.00
36092;BME280;22147;52.388;13.390;2024-03-02T08:49:47;99975.28;;;6.06;100.00
36092;BME280;22147;52.388;13.390;2024-03-02T08:52:17;99978.53;;;6.08;100.00
36092;BME280;22147;52.388;13.390;2024-03-02T08:54:47;99976.06;;;6.06;100.00
36092;BME280;22147;52.388;13.390;2024-03-02T08:57:18;99983.41;;;6.11;100.00
36092;BME280;22147;52.388;13.390;2024-03-02T08:59:48;99987.44;;;6.14;100.00
36092;BME280;22147;52.388;13.390;2024-03-02T09:02:16;99985.84;;;6.13;100.00
36092;BME280;22147;52.388;13.390;2024-03-02T09:04:44;99987.28;;;6.10;100.00
36092;BME280;22147;52.388;13.390;2024-03-02T09:07:13;99993.81;;;6.14;100.00
36092;BME280;22147;52.388;13.390;2024-03-02T09:09:43;100001.44;;;6.17;100.00
36092;BME280;22147;52.388;13.390;2024-03-02T09:12:11;99998.38;;;6.19;100.00
36092;BME280;22147;52.388;13.390;2024-03-02T09:14:41;99998.66;;;6.17;100.00
36092;BME280;22147;52.388;13.390;2024-03-02T09:17:10;100005.00;;;6.18;100.00
36092;BME280;22147;52.388;13.390;2024-03-02T09:19:41;100009.09;;;6.20;100.00
36092;BME280;22147;52.388;13.390;2024-03-02T09:22:09;100005.19;;;6.21;100.00
36092;BME280;22147;52.388;13.390;2024-03-02T09:24:39;100002.13;;;6.23;100.00
36092;BME280;22147;52.388;13.390;2024-03-02T09:27:09;100012.34;;;6.22;100.00
36092;BME280;22147;52.388;13.390;2024-03-02T09:29:39;100019.66;;;6.27;100.00
36092;BME280;22147;52.388;13.390;2024-03-02T09:32:13;100011.25;;;6.32;100.00
36092;BME280;22147;52.388;13.390;2024-03-02T09:34:43;100009.47;;;6.36;100.00
36092;BME280;22147;52.388;13.390;2024-03-02T09:37:13;100007.06;;;6.43;100.00
36092;BME280;22147;52.388;13.390;2024-03-02T09:39:44;100007.41;;;6.42;100.00
36092;BME280;22147;52.388;13.390;2024-03-02T09:42:15;100004.81;;;6.45;100.00
36092;BME280;22147;52.388;13.390;2024-03-02T09:44:47;100001.63;;;6.52;100.00
36092;BME280;22147;52.388;13.390;2024-03-02T09:47:16;100005.53;;;6.60;100.00
36092;BME280;22147;52.388;13.390;2024-03-02T09:49:46;99998.25;;;6.72;100.00
36092;BME280;22147;52.388;13.390;2024-03-02T09:52:16;99999.44;;;6.89;100.00
36092;BME280;22147;52.388;13.390;2024-03-02T09:54:47;99998.00;;;7.00;100.00
36092;BME280;22147;52.388;13.390;2024-03-02T09:57:18;99996.09;;;7.18;100.00
36092;BME280;22147;52.388;13.390;2024-03-02T09:59:48;100003.59;;;7.35;100.00
36092;BME280;22147;52.388;13.390;2024-03-02T10:02:18;100007.66;;;7.46;100.00
36092;BME280;22147;52.388;13.390;2024-03-02T10:04:49;100010.59;;;7.59;100.00
36092;BME280;22147;52.388;13.390;2024-03-02T10:07:20;100013.81;;;7.69;100.00
36092;BME280;22147;52.388;13.390;2024-03-02T10:09:49;100012.22;;;7.77;100.00
36092;BME280;22147;52.388;13.390;2024-03-02T10:12:19;100010.41;;;7.81;100.00
36092;BME280;22147;52.388;13.390;2024-03-02T10:14:49;100007.47;;;7.86;100.00
36092;BME280;22147;52.388;13.390;2024-03-02T10:17:31;100016.56;;;7.87;100.00
36092;BME280;22147;52.388;13.390;2024-03-02T10:20:24;100011.84;;;7.96;100.00
36092;BME280;22147;52.388;13.390;2024-03-02T10:23:10;100006.63;;;8.03;100.00
36092;BME280;22147;52.388;13.390;2024-03-02T10:25:43;100002.22;;;8.20;100.00
36092;BME280;22147;52.388;13.390;2024-03-02T10:28:24;100010.34;;;8.16;100.00
36092;BME280;22147;52.388;13.390;2024-03-02T10:30:58;100013.44;;;8.14;100.00
36092;BME280;22147;52.388;13.390;2024-03-02T10:33:28;100004.78;;;8.25;100.00
36092;BME280;22147;52.388;13.390;2024-03-02T10:35:59;99999.91;;;8.30;100.00
36092;BME280;22147;52.388;13.390;2024-03-02T10:38:31;100009.16;;;8.34;100.00
36092;BME280;22147;52.388;13.390;2024-03-02T10:41:03;100002.31;;;8.49;100.00
36092;BME280;22147;52.388;13.390;2024-03-02T10:43:33;100006.94;;;8.66;100.00
36092;BME280;22147;52.388;13.390;2024-03-02T10:46:04;100004.63;;;8.77;100.00
36092;BME280;22147;52.388;13.390;2024-03-02T10:48:36;100004.06;;;8.54;100.00
36092;BME280;22147;52.388;13.390;2024-03-02T10:51:10;100007.56;;;8.72;100.00
36092;BME280;22147;52.388;13.390;2024-03-02T10:53:41;100002.97;;;8.85;100.00
36092;BME280;22147;52.388;13.390;2024-03-02T10:56:22;100001.41;;;8.96;100.00
36092;BME280;22147;52.388;13.390;2024-03-02T11:01:43;100001.13;;;9.40;100.00
36092;BME280;22147;52.388;13.390;2024-03-02T11:04:19;100004.75;;;9.73;100.00
36092;BME280;22147;52.388;13.390;2024-03-02T11:09:41;100017.28;;;10.13;100.00
36092;BME280;22147;52.388;13.390;2024-03-02T11:12:32;100015.78;;;10.49;100.00
36092;BME280;22147;52.388;13.390;2024-03-02T11:15:18;100005.13;;;11.12;100.00
36092;BME280;22147;52.388;13.390;2024-03-02T11:17:53;100000.56;;;11.32;100.00
36092;BME280;22147;52.388;13.390;2024-03-02T11:20:26;99994.25;;;10.70;100.00
36092;BME280;22147;52.388;13.390;2024-03-02T11:23:05;99989.97;;;11.10;100.00
36092;BME280;22147;52.388;13.390;2024-03-02T11:25:37;99998.66;;;11.20;100.00
36092;BME280;22147;52.388;13.390;2024-03-02T11:28:09;99995.41;;;11.18;100.00
36092;BME280;22147;52.388;13.390;2024-03-02T11:33:24;100001.44;;;10.84;100.00
36092;BME280;22147;52.388;13.390;2024-03-02T11:35:57;100002.81;;;10.90;100.00
36092;BME280;22147;52.388;13.390;2024-03-02T11:38:30;100004.59;;;10.94;100.00
36092;BME280;22147;52.388;13.390;2024-03-02T11:41:06;100006.06;;;11.04;100.00
36092;BME280;22147;52.388;13.390;2024-03-02T11:43:39;100004.94;;;10.93;100.00
36092;BME280;22147;52.388;13.390;2024-03-02T11:46:11;100005.59;;;11.02;100.00
36092;BME280;22147;52.388;13.390;2024-03-02T11:48:43;100005.00;;;11.21;100.00
36092;BME280;22147;52.388;13.390;2024-03-02T11:51:13;100003.59;;;11.27;100.00
36092;BME280;22147;52.388;13.390;2024-03-02T11:53:47;100005.13;;;11.25;100.00
36092;BME280;22147;52.388;13.390;2024-03-02T11:56:20;100000.63;;;11.20;100.00
36092;BME280;22147;52.388;13.390;2024-03-02T11:58:54;100001.69;;;11.03;100.00
36092;BME280;22147;52.388;13.390;2024-03-02T12:01:25;100002.59;;;11.07;100.00
36092;BME280;22147;52.388;13.390;2024-03-02T12:03:55;100007.34;;;11.07;100.00
36092;BME280;22147;52.388;13.390;2024-03-02T12:06:29;100001.22;;;11.01;99.38
36092;BME280;22147;52.388;13.390;2024-03-02T12:09:00;100006.44;;;10.90;100.00
36092;BME280;22147;52.388;13.390;2024-03-02T12:11:31;100005.13;;;11.00;100.00
36092;BME280;22147;52.388;13.390;2024-03-02T12:14:01;100004.09;;;11.05;100.00
36092;BME280;22147;52.388;13.390;2024-03-02T12:16:32;100002.03;;;11.02;100.00
36092;BME280;22147;52.388;13.390;2024-03-02T12:19:02;99998.06;;;11.03;100.00
36092;BME280;22147;52.388;13.390;2024-03-02T12:21:32;99993.22;;;10.99;100.00
36092;BME280;22147;52.388;13.390;2024-03-02T12:24:03;99988.25;;;11.05;100.00
36092;BME280;22147;52.388;13.390;2024-03-02T12:26:34;99985.47;;;11.05;100.00
36092;BME280;22147;52.388;13.390;2024-03-02T12:29:04;99998.44;;;11.01;100.00
36092;BME280;22147;52.388;13.390;2024-03-02T12:31:35;99983.97;;;10.83;100.00
36092;BME280;22147;52.388;13.390;2024-03-02T12:34:05;99991.03;;;10.68;100.00
36092;BME280;22147;52.388;13.390;2024-03-02T12:36:39;99977.72;;;10.62;100.00
36092;BME280;22147;52.388;13.390;2024-03-02T12:39:11;99985.38;;;10.65;100.00
36092;BME280;22147;52.388;13.390;2024-03-02T12:41:41;99984.66;;;10.55;100.00
36092;BME280;22147;52.388;13.390;2024-03-02T12:44:10;99983.28;;;10.74;100.00
36092;BME280;22147;52.388;13.390;2024-03-02T12:46:39;99989.53;;;10.83;100.00
36092;BME280;22147;52.388;13.390;2024-03-02T12:49:12;99989.06;;;11.06;100.00
36092;BME280;22147;52.388;13.390;2024-03-02T12:51:46;99987.03;;;11.31;100.00
36092;BME280;22147;52.388;13.390;2024-03-02T12:54:22;99983.53;;;11.46;100.00
36092;BME280;22147;52.388;13.390;2024-03-02T12:56:52;99985.09;;;11.59;97.98
36092;BME280;22147;52.388;13.390;2024-03-02T12:59:24;99980.31;;;11.32;100.00
36092;BME280;22147;52.388;13.390;2024-03-02T13:01:57;99977.59;;;11.60;100.00
36092;BME280;22147;52.388;13.390;2024-03-02T13:04:29;99984.88;;;11.65;98.61
36092;BME280;22147;52.388;13.390;2024-03-02T13:07:01;99978.88;;;11.78;98.40
36092;BME280;22147;52.388;13.390;2024-03-02T13:09:32;99982.13;;;11.80;94.87
36092;BME280;22147;52.388;13.390;2024-03-02T13:12:04;99983.53;;;11.74;91.79
36092;BME280;22147;52.388;13.390;2024-03-02T13:14:35;99978.16;;;11.53;93.73
36092;BME280;22147;52.388;13.390;2024-03-02T13:17:11;99975.28;;;11.50;96.17